createdAt,value
2023-02-03T00:02:04.724Z,4.97
2023-02-03T00:04:31.434Z,4.72
2023-02-03T00:06:58.239Z,4.65
2023-02-03T00:09:25.371Z,6.15
2023-02-03T00:11:52.698Z,5.50
2023-02-03T00:14:19.537Z,5.05
2023-02-03T00:16:46.377Z,6.28
2023-02-03T00:19:15.509Z,5.30
2023-02-03T00:21:44.805Z,4.55
2023-02-03T00:24:11.864Z,4.72
2023-02-03T00:26:43.037Z,4.13
2023-02-03T00:29:09.750Z,3.95
2023-02-03T00:31:36.819Z,4.45
2023-02-03T00:34:03.676Z,4.93
2023-02-03T00:36:31.061Z,4.57
2023-02-03T00:38:58.038Z,4.80
2023-02-03T00:41:31.076Z,4.25
2023-02-03T00:43:57.885Z,3.88
2023-02-03T00:46:24.734Z,4.03
2023-02-03T00:48:51.506Z,3.40
2023-02-03T00:51:18.172Z,3.63
2023-02-03T00:53:44.900Z,3.88
2023-02-03T00:56:12.826Z,4.05
2023-02-03T00:58:40.709Z,3.60
2023-02-03T01:01:08.097Z,3.70
2023-02-03T01:03:34.997Z,3.65
2023-02-03T01:06:20.413Z,3.85
2023-02-03T01:08:48.409Z,3.47
2023-02-03T01:11:18.728Z,3.90
2023-02-03T01:13:45.900Z,4.13
2023-02-03T01:16:15.994Z,3.88
2023-02-03T01:18:43.264Z,4.45
2023-02-03T01:21:16.429Z,3.95
2023-02-03T01:23:43.456Z,4.18
2023-02-03T01:26:13.810Z,3.83
2023-02-03T01:28:41.158Z,4.07
2023-02-03T01:31:19.009Z,4.88
2023-02-03T01:33:48.481Z,3.90
2023-02-03T01:36:18.757Z,4.05
2023-02-03T01:38:46.147Z,4.57
2023-02-03T01:41:19.335Z,3.80
2023-02-03T01:43:49.062Z,4.50
2023-02-03T01:46:38.644Z,4.60
2023-02-03T01:49:24.433Z,4.38
2023-02-03T01:51:53.461Z,4.78
2023-02-03T01:54:26.787Z,4.20
2023-02-03T01:57:01.709Z,3.78
2023-02-03T01:59:30.213Z,4.47
2023-02-03T02:01:58.796Z,3.67
2023-02-03T02:04:32.537Z,4.25
2023-02-03T02:06:59.646Z,3.90
2023-02-03T02:09:27.610Z,3.33
2023-02-03T02:11:54.285Z,3.20
2023-02-03T02:14:21.014Z,3.17
2023-02-03T02:17:09.838Z,3.40
2023-02-03T02:20:18.135Z,3.00
2023-02-03T02:23:23.709Z,2.47
2023-02-03T02:26:18.350Z,2.88
2023-02-03T02:29:03.862Z,2.65
2023-02-03T02:31:39.622Z,3.05
2023-02-03T02:34:09.522Z,3.92
2023-02-03T02:36:52.330Z,3.67
2023-02-03T02:39:27.022Z,3.17
2023-02-03T02:42:00.885Z,4.07
2023-02-03T02:44:33.422Z,4.90
2023-02-03T02:47:07.038Z,4.13
2023-02-03T02:49:44.623Z,4.55
2023-02-03T02:52:15.697Z,4.00
2023-02-03T02:54:45.461Z,4.05
2023-02-03T02:57:13.957Z,3.80
2023-02-03T02:59:40.660Z,3.90
2023-02-03T03:02:08.736Z,4.00
2023-02-03T03:04:35.545Z,4.45
2023-02-03T03:07:11.540Z,5.30
2023-02-03T03:10:07.726Z,5.15
2023-02-03T03:12:43.733Z,5.85
2023-02-03T03:15:20.524Z,6.10
2023-02-03T03:17:54.981Z,5.47
2023-02-03T03:20:25.724Z,5.57
2023-02-03T03:23:01.977Z,6.10
2023-02-03T03:25:36.507Z,7.07
2023-02-03T03:28:09.931Z,6.30
2023-02-03T03:30:39.353Z,5.88
2023-02-03T03:33:07.496Z,6.30
2023-02-03T03:36:01.580Z,4.65
2023-02-03T03:38:45.138Z,4.47
2023-02-03T03:41:38.088Z,4.22
2023-02-03T03:44:10.641Z,3.95
2023-02-03T03:46:48.906Z,4.63
2023-02-03T03:49:18.881Z,4.15
2023-02-03T03:51:54.304Z,4.22
2023-02-03T03:54:23.061Z,3.72
2023-02-03T03:56:58.555Z,4.18
2023-02-03T03:59:29.289Z,4.35
2023-02-03T04:04:25.803Z,4.25
2023-02-03T04:06:55.745Z,3.72
2023-02-03T04:09:22.446Z,4.13
2023-02-03T04:12:01.464Z,3.70
2023-02-03T04:14:30.325Z,3.10
2023-02-03T04:16:58.461Z,3.13
2023-02-03T04:19:25.730Z,3.17
2023-02-03T04:21:52.520Z,3.08
2023-02-03T04:24:19.369Z,3.47
2023-02-03T04:26:46.078Z,3.33
2023-02-03T04:29:12.781Z,2.92
2023-02-03T04:31:40.062Z,3.10
2023-02-03T04:34:08.062Z,2.70
2023-02-03T04:36:35.249Z,2.90
2023-02-03T04:39:02.260Z,2.95
2023-02-03T04:41:29.034Z,3.75
2023-02-03T04:43:55.843Z,2.63
2023-02-03T04:46:22.638Z,2.55
2023-02-03T04:48:49.365Z,2.88
2023-02-03T04:51:16.160Z,3.50
2023-02-03T04:53:42.960Z,3.22
2023-02-03T04:56:09.729Z,4.38
2023-02-03T04:58:37.813Z,3.08
2023-02-03T05:01:09.261Z,3.13
2023-02-03T05:03:36.448Z,2.60
2023-02-03T05:06:03.955Z,2.83
2023-02-03T05:08:30.993Z,3.15
2023-02-03T05:10:59.595Z,3.33
2023-02-03T05:13:28.129Z,3.50
2023-02-03T05:15:54.896Z,3.35
2023-02-03T05:18:21.770Z,4.22
2023-02-03T05:20:48.468Z,4.18
2023-02-03T05:23:15.195Z,4.78
2023-02-03T05:25:43.855Z,5.63
2023-02-03T05:28:10.682Z,5.05
2023-02-03T05:30:37.536Z,4.72
2023-02-03T05:33:04.353Z,4.70
2023-02-03T05:35:31.090Z,4.68
2023-02-03T05:38:02.400Z,5.05
2023-02-03T05:40:47.714Z,4.38
2023-02-03T05:43:14.757Z,4.80
2023-02-03T05:45:41.585Z,4.20
2023-02-03T05:48:10.934Z,4.40
2023-02-03T05:50:38.809Z,4.95
2023-02-03T05:53:06.984Z,4.97
2023-02-03T05:55:34.733Z,5.40
2023-02-03T05:58:01.546Z,5.70
2023-02-03T06:00:29.568Z,6.35
2023-02-03T06:02:59.181Z,6.10
2023-02-03T06:05:26.816Z,5.75
2023-02-03T06:07:59.743Z,5.22
2023-02-03T06:10:29.423Z,5.03
2023-02-03T06:12:56.352Z,4.63
2023-02-03T06:15:23.203Z,3.72
2023-02-03T06:17:50.296Z,4.35
2023-02-03T06:20:22.442Z,3.72
2023-02-03T06:22:51.743Z,3.58
2023-02-03T06:25:24.262Z,3.90
2023-02-03T06:27:56.367Z,4.25
2023-02-03T06:30:24.004Z,4.47
2023-02-03T06:32:51.130Z,4.40
2023-02-03T06:35:18.590Z,3.88
2023-02-03T06:37:45.513Z,4.35
2023-02-03T06:40:13.347Z,4.55
2023-02-03T06:42:40.153Z,5.13
2023-02-03T06:45:10.370Z,5.10
2023-02-03T06:47:41.265Z,6.43
2023-02-03T06:50:09.556Z,6.35
2023-02-03T06:52:36.315Z,6.22
2023-02-03T06:55:04.160Z,5.70
2023-02-03T06:57:31.013Z,12.45
2023-02-03T06:59:57.882Z,5.70
2023-02-03T07:02:27.194Z,7.03
2023-02-03T07:04:57.113Z,5.50
2023-02-03T07:07:23.874Z,6.22
2023-02-03T07:09:52.627Z,5.15
2023-02-03T07:12:19.356Z,4.70
2023-02-03T07:14:46.440Z,4.72
2023-02-03T07:17:22.174Z,4.93
2023-02-03T07:19:51.672Z,5.35
2023-02-03T07:22:21.576Z,5.07
2023-02-03T07:24:51.407Z,7.10
2023-02-03T07:27:19.191Z,8.52
2023-02-03T07:29:50.577Z,8.35
2023-02-03T07:32:19.682Z,7.88
2023-02-03T07:34:46.532Z,8.20
2023-02-03T07:37:17.420Z,10.65
2023-02-03T07:39:44.252Z,8.82
2023-02-03T07:42:11.077Z,7.70
2023-02-03T07:44:37.770Z,7.57
2023-02-03T07:47:04.533Z,7.45
2023-02-03T07:49:31.291Z,7.32
2023-02-03T07:51:58.062Z,8.25
2023-02-03T07:54:25.177Z,9.23
2023-02-03T07:56:54.139Z,11.43
2023-02-03T07:59:23.231Z,10.93
2023-02-03T08:01:50.178Z,12.07
2023-02-03T08:04:17.331Z,9.25
2023-02-03T08:06:44.466Z,8.23
2023-02-03T08:09:13.592Z,7.70
2023-02-03T08:11:50.931Z,5.93
2023-02-03T08:14:18.133Z,6.65
2023-02-03T08:17:01.586Z,7.57
2023-02-03T08:19:31.607Z,5.93
2023-02-03T08:22:03.762Z,6.32
2023-02-03T08:24:40.116Z,6.72
2023-02-03T08:27:45.431Z,6.63
2023-02-03T08:30:50.489Z,7.07
2023-02-03T08:33:34.239Z,6.20
2023-02-03T08:36:01.384Z,6.28
2023-02-03T08:38:30.871Z,5.38
2023-02-03T08:40:58.677Z,5.45
2023-02-03T08:43:25.826Z,5.80
2023-02-03T08:45:52.824Z,6.60
2023-02-03T08:48:19.794Z,4.75
2023-02-03T08:50:52.201Z,4.22
2023-02-03T08:53:19.168Z,4.57
2023-02-03T08:55:46.144Z,5.05
2023-02-03T08:58:13.127Z,4.88
2023-02-03T09:00:40.114Z,4.95
2023-02-03T09:03:06.927Z,4.78
2023-02-03T09:05:34.379Z,4.57
2023-02-03T09:08:01.377Z,4.45
2023-02-03T09:10:28.703Z,4.10
2023-02-03T09:12:56.645Z,5.20
2023-02-03T09:15:23.561Z,5.15
2023-02-03T09:17:50.397Z,5.70
2023-02-03T09:20:18.689Z,5.63
2023-02-03T09:22:45.415Z,7.18
2023-02-03T09:25:12.424Z,6.85
2023-02-03T09:27:39.362Z,7.28
2023-02-03T09:30:06.852Z,7.25
2023-02-03T09:32:48.298Z,8.90
2023-02-03T09:35:15.696Z,8.50
2023-02-03T09:37:42.808Z,10.00
2023-02-03T09:40:18.800Z,9.07
2023-02-03T09:42:59.076Z,7.68
2023-02-03T09:45:29.027Z,6.55
2023-02-03T09:48:25.501Z,7.38
2023-02-03T09:51:06.114Z,6.70
2023-02-03T09:53:54.334Z,5.85
2023-02-03T09:56:57.839Z,6.22
2023-02-03T09:59:55.234Z,6.50
2023-02-03T10:06:36.620Z,7.70
2023-02-03T10:13:01.200Z,5.65
2023-02-03T10:16:30.311Z,7.13
2023-02-03T10:19:30.016Z,6.53
2023-02-03T10:22:39.289Z,7.07
2023-02-03T10:25:55.647Z,6.80
2023-02-03T10:29:22.345Z,6.90
2023-02-03T10:32:29.951Z,7.28
2023-02-03T10:35:18.192Z,7.47
2023-02-03T10:44:03.280Z,6.10
2023-02-03T10:46:55.635Z,9.88
2023-02-03T10:49:39.278Z,8.50
2023-02-03T10:55:50.245Z,9.75
2023-02-03T10:58:48.200Z,8.55
2023-02-03T11:02:57.573Z,7.82
2023-02-03T11:04:32.458Z,7.72
2023-02-03T11:11:13.339Z,8.38
2023-02-03T11:13:21.888Z,8.15
2023-02-03T11:16:01.118Z,8.43
2023-02-03T11:18:51.591Z,9.10
2023-02-03T11:21:32.480Z,8.43
2023-02-03T11:24:12.611Z,11.02
2023-02-03T11:27:07.754Z,8.50
2023-02-03T11:29:38.170Z,8.85
2023-02-03T11:32:29.044Z,8.93
2023-02-03T11:35:06.034Z,8.95
2023-02-03T11:37:46.380Z,8.40
2023-02-03T11:42:58.896Z,9.82
2023-02-03T11:45:25.812Z,10.23
2023-02-03T11:52:10.664Z,8.85
2023-02-03T11:55:09.131Z,9.18
2023-02-03T11:58:06.540Z,9.57
2023-02-03T12:01:19.883Z,9.88
2023-02-03T12:03:49.594Z,9.40
2023-02-03T12:06:25.967Z,10.30
2023-02-03T12:09:18.306Z,10.05
2023-02-03T12:11:54.165Z,9.38
2023-02-03T12:14:20.911Z,10.45
2023-02-03T12:16:50.417Z,10.52
2023-02-03T12:19:54.155Z,12.30
2023-02-03T12:22:45.074Z,9.73
2023-02-03T12:25:25.169Z,11.60
2023-02-03T12:28:41.634Z,11.75
2023-02-03T12:31:25.422Z,11.57
2023-02-03T12:33:59.742Z,13.02
2023-02-03T12:36:41.786Z,13.55
2023-02-03T12:39:29.667Z,12.23
2023-02-03T12:42:12.919Z,13.82
2023-02-03T12:44:53.229Z,13.02
2023-02-03T12:47:30.172Z,13.25
2023-02-03T12:50:18.227Z,11.77
2023-02-03T12:53:24.217Z,12.13
2023-02-03T12:56:03.100Z,11.60
2023-02-03T12:58:53.706Z,11.32
2023-02-03T13:01:30.203Z,13.30
2023-02-03T13:04:16.295Z,12.80
2023-02-03T13:07:14.414Z,12.07
2023-02-03T13:10:07.840Z,9.32
2023-02-03T13:12:49.512Z,11.00
2023-02-03T13:15:57.620Z,11.77
2023-02-03T13:18:57.331Z,11.88
2023-02-03T13:21:31.478Z,13.40
2023-02-03T13:24:04.037Z,12.32
2023-02-03T13:27:29.920Z,12.50
2023-02-03T13:30:09.699Z,12.15
2023-02-03T13:32:47.718Z,12.00
2023-02-03T13:35:32.218Z,11.20
2023-02-03T13:38:25.051Z,11.35
2023-02-03T13:41:34.330Z,14.88
2023-02-03T13:44:14.024Z,9.48
2023-02-03T13:46:47.534Z,9.57
2023-02-03T13:50:09.083Z,11.55
2023-02-03T13:52:44.693Z,12.73
2023-02-03T13:55:41.513Z,8.50
2023-02-03T14:01:30.841Z,7.18
2023-02-03T14:04:02.759Z,8.13
2023-02-03T14:06:40.649Z,8.70
2023-02-03T14:09:30.158Z,9.93
2023-02-03T14:12:11.539Z,9.52
2023-02-03T14:14:48.187Z,8.43
2023-02-03T14:17:33.778Z,11.60
2023-02-03T14:20:27.887Z,10.05
2023-02-03T14:23:08.807Z,8.65
2023-02-03T14:29:56.372Z,8.32
2023-02-03T14:32:25.550Z,10.23
2023-02-03T14:35:02.739Z,7.88
2023-02-03T14:37:39.175Z,9.00
2023-02-03T14:40:51.635Z,10.07
2023-02-03T14:43:41.660Z,9.52
2023-02-03T14:46:39.097Z,9.73
2023-02-03T14:49:35.395Z,11.07
2023-02-03T15:22:58.349Z,7.82
2023-02-03T15:52:49.717Z,8.88
2023-02-03T16:28:47.996Z,10.13
2023-02-03T16:32:19.220Z,16.15
2023-02-03T16:47:31.471Z,17.48
2023-02-03T16:58:58.900Z,14.32
2023-02-03T17:15:41.892Z,11.15
2023-02-03T17:22:14.008Z,11.43
2023-02-03T17:58:12.683Z,20.27
2023-02-03T18:01:40.779Z,23.65
2023-02-03T18:08:03.321Z,24.27
2023-02-03T18:11:01.252Z,20.45
2023-02-03T18:16:23.122Z,19.23
2023-02-03T18:18:59.451Z,18.98
2023-02-03T18:21:28.429Z,20.17
2023-02-03T18:24:03.888Z,23.17
2023-02-03T18:26:37.580Z,21.00
2023-02-03T18:29:05.952Z,21.38
2023-02-03T18:31:33.205Z,22.70
2023-02-03T18:34:04.002Z,25.95
2023-02-03T18:38:58.617Z,21.52
2023-02-03T18:41:26.097Z,22.58
2023-02-03T18:43:52.920Z,19.55
2023-02-03T18:46:28.934Z,20.77
2023-02-03T18:48:56.288Z,18.65
2023-02-03T18:51:24.704Z,19.58
2023-02-03T18:53:51.428Z,17.35
2023-02-03T18:56:24.572Z,17.88
2023-02-03T18:58:51.581Z,17.75
2023-02-03T19:01:23.653Z,17.65
2023-02-03T19:03:50.877Z,18.55
2023-02-03T19:06:18.485Z,19.90
2023-02-03T19:08:45.649Z,19.20
2023-02-03T19:11:13.874Z,17.50
2023-02-03T19:13:41.341Z,45.90
2023-02-03T19:16:09.444Z,16.70
2023-02-03T19:18:36.241Z,44.90
2023-02-03T19:21:03.209Z,37.33
2023-02-03T19:23:30.296Z,76.38
2023-02-03T19:25:57.113Z,114.18
2023-02-03T19:28:30.959Z,73.70
2023-02-03T19:31:15.377Z,43.90
2023-02-03T19:33:45.086Z,15.13
2023-02-03T19:36:13.037Z,23.58
2023-02-03T19:38:45.092Z,23.20
2023-02-03T19:41:17.563Z,24.73
2023-02-03T19:43:44.353Z,17.60
2023-02-03T19:48:57.600Z,15.23
2023-02-03T19:51:27.424Z,14.98
2023-02-03T19:54:02.726Z,47.55
2023-02-03T19:56:38.604Z,64.45
2023-02-03T19:59:07.160Z,74.85
2023-02-03T20:01:34.059Z,39.88
2023-02-03T20:04:01.239Z,15.90
2023-02-03T20:06:28.656Z,36.47
2023-02-03T20:08:56.367Z,19.80
2023-02-03T20:11:23.333Z,31.02
2023-02-03T20:13:50.742Z,26.85
2023-02-03T20:16:24.825Z,33.78
2023-02-03T20:18:51.746Z,17.30
2023-02-03T20:21:18.434Z,14.18
2023-02-03T20:24:01.181Z,13.35
2023-02-03T20:26:33.482Z,16.73
2023-02-03T20:29:02.884Z,56.25
2023-02-03T20:31:44.708Z,20.23
2023-02-03T20:34:19.035Z,24.95
2023-02-03T20:36:55.832Z,46.13
2023-02-03T20:39:22.813Z,18.67
2023-02-03T20:41:56.307Z,15.20
2023-02-03T20:44:39.260Z,25.08
2023-02-03T20:47:28.875Z,43.35
2023-02-03T20:50:03.731Z,22.92
2023-02-03T20:52:41.943Z,17.33
2023-02-03T20:55:18.036Z,12.25
2023-02-03T20:57:45.470Z,24.52
2023-02-03T21:00:19.306Z,20.25
2023-02-03T21:03:09.544Z,24.60
2023-02-03T21:05:41.967Z,32.33
2023-02-03T21:08:18.835Z,17.33
2023-02-03T21:10:54.126Z,13.77
2023-02-03T21:13:27.152Z,14.07
2023-02-03T21:16:10.913Z,14.82
2023-02-03T21:18:42.329Z,14.63
2023-02-03T21:21:20.121Z,12.77
2023-02-03T21:23:47.772Z,11.80
2023-02-03T21:26:23.414Z,12.20
2023-02-03T21:28:52.685Z,12.57
2023-02-03T21:31:23.902Z,12.25
2023-02-03T21:33:52.601Z,12.88
2023-02-03T21:36:22.426Z,11.90
2023-02-03T21:38:57.667Z,11.48
2023-02-03T21:41:25.698Z,13.38
2023-02-03T21:43:56.845Z,12.88
2023-02-03T21:46:29.017Z,13.48
2023-02-03T21:48:57.687Z,14.05
2023-02-03T21:51:27.974Z,10.57
2023-02-03T21:53:57.604Z,11.10
2023-02-03T21:56:35.518Z,9.53
2023-02-03T21:59:02.462Z,10.93
2023-02-03T22:01:36.290Z,10.57
2023-02-03T22:04:04.116Z,11.52
2023-02-03T22:06:44.258Z,11.02
2023-02-03T22:09:13.851Z,12.70
2023-02-03T22:11:40.673Z,11.45
2023-02-03T22:14:07.849Z,12.10
2023-02-03T22:16:35.791Z,10.10
2023-02-03T22:19:02.621Z,10.30
2023-02-03T22:21:29.359Z,12.70
2023-02-03T22:23:56.061Z,11.73
2023-02-03T22:26:23.258Z,11.65
2023-02-03T22:28:50.446Z,11.05
2023-02-03T22:31:17.646Z,11.40
2023-02-03T22:33:44.512Z,12.00
2023-02-03T22:36:13.051Z,10.32
2023-02-03T22:38:41.322Z,9.38
2023-02-03T22:41:11.802Z,8.10
2023-02-03T22:43:38.995Z,8.55
2023-02-03T22:46:07.073Z,8.68
2023-02-03T22:48:34.528Z,8.45
2023-02-03T22:51:01.460Z,8.23
2023-02-03T22:53:28.947Z,7.97
2023-02-03T22:55:55.879Z,7.55
2023-02-03T22:58:22.852Z,7.32
2023-02-03T23:00:51.072Z,7.20
2023-02-03T23:03:17.991Z,7.95
2023-02-03T23:05:44.843Z,8.50
2023-02-03T23:08:11.535Z,8.23
2023-02-03T23:10:38.318Z,8.15
2023-02-03T23:13:05.274Z,8.93
2023-02-03T23:15:32.038Z,9.05
2023-02-03T23:17:58.778Z,7.00
2023-02-03T23:20:25.710Z,8.85
2023-02-03T23:22:52.507Z,8.55
2023-02-03T23:25:19.293Z,8.23
2023-02-03T23:27:46.254Z,7.82
2023-02-03T23:30:14.133Z,8.27
2023-02-03T23:32:42.372Z,7.72
2023-02-03T23:35:28.069Z,7.35
2023-02-03T23:37:54.886Z,8.18
2023-02-03T23:40:22.294Z,7.65
2023-02-03T23:42:49.292Z,8.93
2023-02-03T23:45:16.315Z,7.75
2023-02-03T23:47:44.850Z,7.95
2023-02-03T23:50:14.597Z,7.57
2023-02-03T23:52:41.542Z,7.50
2023-02-03T23:55:12.415Z,7.47
2023-02-03T23:57:39.346Z,7.35
